Time;durP1;ratioP1;P1;durP2;ratioP2;P2;SDS_P1;SDS_P2;PMS_P1;PMS_P2;Temp;Humidity;BMP_temperature;BMP_pressure;BME280_temperature;BME280_humidity;BME280_pressure;Samples;Min_cycle;Max_cycle;Signal;HPM_P1;HPM_P2
2023/08/23 00:02:49;;;;;;;12.80;8.20;;;;;;;20.71;100.00;99105.66;268767;1270;22540;-89
2023/08/23 00:08:51;;;;;;;10.80;8.30;;;;;;;20.67;100.00;99110.61;269437;1270;23213;-82
2023/08/23 00:14:59;;;;;;;19.60;9.20;;;;;;;20.60;100.00;99096.83;272130;1270;22221;-85
2023/08/23 00:21:05;;;;;;;18.50;11.50;;;;;;;20.55;100.00;99083.52;270333;1271;24042;-85
2023/08/23 00:27:19;;;;;;;9.80;8.40;;;;;;;20.60;100.00;99084.09;270070;1270;22401;-85
2023/08/23 00:33:46;;;;;;;11.60;8.90;;;;;;;20.58;100.00;99102.76;273441;1272;22157;-85
2023/08/23 00:39:48;;;;;;;10.60;9.20;;;;;;;20.46;100.00;99092.13;273276;1271;22196;-85
2023/08/23 00:45:51;;;;;;;14.90;9.90;;;;;;;20.50;100.00;99100.52;273010;1270;22398;-86
2023/08/23 00:51:53;;;;;;;15.20;9.00;;;;;;;20.54;100.00;99101.13;273410;1271;23773;-84
2023/08/23 00:58:32;;;;;;;11.60;8.80;;;;;;;20.46;100.00;99109.36;273084;1269;22345;-85
2023/08/23 01:04:34;;;;;;;13.10;9.10;;;;;;;20.47;100.00;99110.44;273284;1275;22295;-84
2023/08/23 01:11:08;;;;;;;13.50;10.30;;;;;;;20.47;100.00;99097.58;273511;1270;22201;-85
2023/08/23 01:17:11;;;;;;;14.70;9.70;;;;;;;20.53;100.00;99096.45;273491;1272;22160;-85
2023/08/23 01:24:08;;;;;;;13.50;10.40;;;;;;;20.55;100.00;99078.30;271465;1269;22338;-85
2023/08/23 01:30:12;;;;;;;16.10;10.60;;;;;;;20.57;100.00;99075.77;272519;1270;22425;-85
2023/08/23 01:36:32;;;;;;;10.90;9.10;;;;;;;20.56;100.00;99059.84;271238;1270;22566;-85
2023/08/23 01:42:33;;;;;;;13.00;9.10;;;;;;;20.59;100.00;99068.16;272429;1269;23263;-85
2023/08/23 01:49:03;;;;;;;14.30;10.10;;;;;;;20.59;100.00;99063.95;273376;1270;22460;-83
2023/08/23 01:55:05;;;;;;;14.50;10.10;;;;;;;20.62;100.00;99064.35;271265;1269;22548;-84
2023/08/23 02:01:27;;;;;;;15.00;10.80;;;;;;;20.64;100.00;99067.31;271605;1270;22199;-84
2023/08/23 02:07:30;;;;;;;12.00;10.70;;;;;;;20.65;100.00;99049.16;273323;1272;22163;-84
2023/08/23 02:13:32;;;;;;;14.60;11.10;;;;;;;20.66;100.00;99041.02;273171;1269;23413;-84
2023/08/23 02:19:59;;;;;;;15.60;12.30;;;;;;;20.66;100.00;99060.42;272490;1269;22214;-84
2023/08/23 02:26:01;;;;;;;16.20;12.30;;;;;;;20.71;100.00;99053.45;273256;1270;24815;-83
2023/08/23 02:32:03;;;;;;;12.50;11.10;;;;;;;20.76;100.00;99064.65;272813;1270;23242;-84
2023/08/23 02:38:08;;;;;;;13.70;11.20;;;;;;;20.75;100.00;99065.48;269874;1269;22550;-83
2023/08/23 02:44:10;;;;;;;13.30;10.90;;;;;;;20.77;100.00;99064.33;270043;1269;22554;-84
2023/08/23 02:50:12;;;;;;;16.30;12.40;;;;;;;20.75;100.00;99063.02;269617;1270;22583;-84
2023/08/23 02:56:44;;;;;;;14.70;11.60;;;;;;;20.69;100.00;99062.70;271273;1272;22636;-84
2023/08/23 03:03:11;;;;;;;16.70;12.40;;;;;;;20.68;100.00;99070.23;271876;1272;22215;-84
2023/08/23 03:09:13;;;;;;;16.60;12.80;;;;;;;20.64;100.00;99084.23;270396;1270;22792;-83
2023/08/23 03:15:15;;;;;;;20.50;14.00;;;;;;;20.63;100.00;99090.22;270996;1270;23902;-83
2023/08/23 03:21:43;;;;;;;19.00;13.80;;;;;;;20.66;100.00;99095.84;272415;1272;22987;-83
2023/08/23 03:27:52;;;;;;;23.20;15.30;;;;;;;20.69;100.00;99076.61;271479;1270;22533;-84
2023/08/23 03:33:53;;;;;;;20.60;15.70;;;;;;;20.70;100.00;99066.11;272456;1270;22402;-83
2023/08/23 03:39:55;;;;;;;18.90;15.70;;;;;;;20.72;100.00;99070.91;272879;1271;22381;-83
2023/08/23 03:45:57;;;;;;;21.80;16.30;;;;;;;20.71;100.00;99084.73;272873;1270;22290;-83
2023/08/23 03:51:59;;;;;;;20.30;16.90;;;;;;;20.69;100.00;99099.04;273058;1272;22793;-83
2023/08/23 03:58:04;;;;;;;22.20;15.90;;;;;;;20.71;100.00;99107.24;272834;1271;23708;-83
2023/08/23 04:04:07;;;;;;;21.40;15.50;;;;;;;20.74;100.00;99106.91;271137;1270;23354;-83
2023/08/23 04:10:09;;;;;;;19.00;15.90;;;;;;;20.77;100.00;99100.46;271121;1272;23165;-84
2023/08/23 04:16:11;;;;;;;23.00;16.70;;;;;;;20.79;100.00;99099.20;273167;1272;22168;-83
2023/08/23 04:22:13;;;;;;;25.50;18.30;;;;;;;20.83;100.00;99099.20;273243;1270;22345;-85
2023/08/23 04:28:15;;;;;;;29.20;18.60;;;;;;;20.85;100.00;99104.95;270856;1270;23822;-84
2023/08/23 04:34:17;;;;;;;26.20;18.70;;;;;;;20.86;100.00;99107.84;269871;1270;22546;-86
2023/08/23 04:40:19;;;;;;;24.80;19.10;;;;;;;20.89;100.00;99095.51;269920;1272;22583;-84
2023/08/23 04:46:20;;;;;;;24.30;19.00;;;;;;;20.89;100.00;99100.29;269801;1272;24224;-84
2023/08/23 04:52:48;;;;;;;28.30;19.30;;;;;;;20.87;100.00;99116.64;270507;1270;22599;-82
2023/08/23 04:58:54;;;;;;;25.20;19.40;;;;;;;20.84;100.00;99128.95;272157;1271;23510;-82
2023/08/23 05:04:59;;;;;;;25.80;19.70;;;;;;;20.83;100.00;99138.61;271722;1272;22198;-83
2023/08/23 05:35:24;;;;;;;34.10;24.30;;;;;;;20.85;100.00;99151.05;272202;1278;23890;-82
2023/08/23 05:41:54;;;;;;;38.10;27.50;;;;;;;20.90;100.00;99158.05;269257;1272;25327;-83
2023/08/23 05:48:23;;;;;;;34.40;27.60;;;;;;;20.93;100.00;99159.72;270059;1271;22553;-83
2023/08/23 05:55:08;;;;;;;48.70;31.80;;;;;;;20.97;100.00;99157.57;273602;1277;22199;-83
2023/08/23 06:01:36;;;;;;;58.20;35.50;;;;;;;20.99;100.00;99155.77;273223;1275;23249;-83
2023/08/23 06:07:43;;;;;;;56.20;34.40;;;;;;;21.04;100.00;99156.19;273463;1272;22230;-83
2023/08/23 06:14:36;;;;;;;52.00;35.60;;;;;;;21.11;100.00;99161.87;273179;1272;24998;-84
2023/08/23 06:21:03;;;;;;;50.20;35.10;;;;;;;21.17;100.00;99160.89;273379;1273;22216;-84
2023/08/23 06:27:05;;;;;;;55.50;35.10;;;;;;;21.32;100.00;99161.09;273458;1277;25456;-83
2023/08/23 06:33:08;;;;;;;52.60;36.60;;;;;;;21.38;100.00;99163.22;270028;1264;22645;-84
2023/08/23 06:39:10;;;;;;;55.00;36.60;;;;;;;21.43;100.00;99170.06;270244;1270;23038;-83
2023/08/23 06:45:12;;;;;;;53.10;37.70;;;;;;;21.51;100.00;99172.53;269529;1272;23866;-84
2023/08/23 06:52:06;;;;;;;47.60;35.00;;;;;;;21.61;100.00;99171.44;269451;1275;22541;-83
2023/08/23 06:58:32;;;;;;;47.70;32.70;;;;;;;21.78;100.00;99172.69;272722;1272;22551;-84
2023/08/23 07:04:50;;;;;;;47.40;32.80;;;;;;;21.89;100.00;99179.84;271971;1269;22499;-84
2023/08/23 07:12:11;;;;;;;44.10;30.40;;;;;;;21.90;100.00;99182.81;273093;1270;22219;-84
2023/08/23 07:18:19;;;;;;;38.10;28.60;;;;;;;22.00;100.00;99183.61;273382;1277;22201;-82
2023/08/23 07:25:20;;;;;;;36.50;28.00;;;;;;;22.19;100.00;99185.23;273644;1273;22140;-83
2023/08/23 07:31:53;;;;;;;36.80;26.90;;;;;;;22.17;100.00;99193.24;273068;1272;22228;-84
2023/08/23 07:39:27;;;;;;;;;;;;;;;;;;;;;
2023/08/23 07:45:59;;;;;;;37.80;29.20;;;;;;;22.24;100.00;99202.34;273074;1270;23324;-85
2023/08/23 07:52:35;;;;;;;;;;;;;;;;;;;;;
2023/08/23 07:59:46;;;;;;;32.80;25.80;;;;;;;22.89;100.00;99212.17;271913;1277;22934;-85
2023/08/23 08:06:39;;;;;;;35.50;26.80;;;;;;;23.10;100.00;99217.42;271639;1270;22235;-84
2023/08/23 08:14:05;;;;;;;35.60;27.70;;;;;;;23.08;100.00;99218.98;270739;1272;22546;-83
2023/08/23 08:21:38;;;;;;;34.80;28.70;;;;;;;23.13;100.00;99221.30;271536;1270;23905;-85
2023/08/23 08:29:16;;;;;;;;;;;;;;;;;;;;;
2023/08/23 08:36:33;;;;;;;32.20;25.90;;;;;;;23.30;100.00;99226.07;267127;1287;22731;-86
2023/08/23 08:43:31;;;;;;;29.80;24.60;;;;;;;23.30;100.00;99229.73;269133;1278;22459;-87
2023/08/23 08:50:41;;;;;;;30.20;25.20;;;;;;;23.27;100.00;99236.38;271739;1276;23161;-84
2023/08/23 08:57:11;;;;;;;32.20;25.60;;;;;;;23.25;100.00;99239.80;271383;1277;22225;-86
2023/08/23 09:03:18;;;;;;;29.00;25.20;;;;;;;23.18;100.00;99241.85;270709;1277;22201;-85
2023/08/23 09:09:38;;;;;;;32.20;25.50;;;;;;;23.14;100.00;99245.19;273693;1278;22189;-85
2023/08/23 09:22:52;;;;;;;32.40;26.50;;;;;;;23.08;100.00;99252.27;272995;1270;26362;-85
2023/08/23 09:29:20;;;;;;;33.00;26.20;;;;;;;23.01;100.00;99251.46;271098;1270;22249;-85
2023/08/23 09:35:33;;;;;;;;;;;;;;;22.95;100.00;99250.33;272093;1270;22613;-85
2023/08/23 09:42:04;;;;;;;28.30;25.30;;;;;;;22.91;100.00;99245.55;273247;1267;22861;-86
2023/08/23 09:48:10;;;;;;;28.80;25.60;;;;;;;22.92;100.00;99242.95;265661;1273;10143908;-85
2023/08/23 10:01:41;;;;;;;27.90;24.00;;;;;;;22.87;100.00;99254.30;270097;1273;22533;-85
2023/08/23 10:08:10;;;;;;;32.30;25.50;;;;;;;22.81;100.00;99261.67;271146;1276;22246;-85
2023/08/23 10:14:56;;;;;;;29.70;25.60;;;;;;;22.74;100.00;99262.77;272754;1272;22965;-85
2023/08/23 10:21:49;;;;;;;33.70;27.20;;;;;;;22.68;100.00;99265.23;271703;1275;22437;-86
2023/08/23 10:27:53;;;;;;;32.70;28.50;;;;;;;22.62;100.00;99259.20;272580;1270;22612;-86
2023/08/23 10:33:57;;;;;;;34.90;26.70;;;;;;;22.68;100.00;99256.52;273251;1270;22201;-85
2023/08/23 10:40:55;;;;;;;35.20;28.80;;;;;;;22.77;100.00;99245.86;272810;1270;22414;-86
2023/08/23 10:47:22;;;;;;;41.30;31.00;;;;;;;22.90;100.00;99246.23;272234;1272;22557;-86
2023/08/23 10:53:27;;;;;;;34.10;27.60;;;;;;;23.08;100.00;99244.45;271386;1270;22556;-85
2023/08/23 11:00:02;;;;;;;34.70;28.00;;;;;;;23.23;100.00;99249.03;271196;1270;22556;-87
2023/08/23 11:06:05;;;;;;;35.00;27.30;;;;;;;23.33;100.00;99243.50;270201;1269;22527;-86
2023/08/23 11:12:11;;;;;;;32.40;27.50;;;;;;;23.43;100.00;99246.87;270881;1270;24203;-87
2023/08/23 11:18:14;;;;;;;31.30;26.10;;;;;;;23.58;100.00;99250.94;271133;1269;22580;-86
2023/08/23 11:24:18;;;;;;;31.50;26.20;;;;;;;23.81;100.00;99245.92;271255;1270;23721;-88
2023/08/23 11:31:12;;;;;;;30.90;25.50;;;;;;;24.21;100.00;99241.58;273226;1273;22565;-86
2023/08/23 11:37:48;;;;;;;26.50;23.60;;;;;;;24.81;100.00;99241.31;273771;1276;22471;-87
2023/08/23 11:44:15;;;;;;;;;;;;;;;25.35;100.00;99237.83;272758;1272;22691;-85
2023/08/23 11:58:25;;;;;;;29.60;21.00;;;;;;;25.79;100.00;99233.77;272994;1270;22673;-86
2023/08/23 12:04:28;;;;;;;26.10;22.30;;;;;;;25.82;100.00;99221.25;273679;1277;23066;-86
2023/08/23 12:10:33;;;;;;;23.90;21.30;;;;;;;25.85;100.00;99217.66;273531;1275;22834;-86
2023/08/23 12:16:39;;;;;;;29.90;22.30;;;;;;;25.87;100.00;99216.93;272201;1269;23359;-86
2023/08/23 12:23:07;;;;;;;29.10;20.90;;;;;;;25.89;99.93;99216.77;272202;1271;22494;-89
2023/08/23 12:29:09;;;;;;;25.30;21.20;;;;;;;25.83;99.94;99212.55;270565;1262;22515;-87
2023/08/23 12:35:12;;;;;;;22.60;20.20;;;;;;;25.71;98.32;99203.19;270559;1269;24307;-87
2023/08/23 12:48:19;;;;;;;22.40;20.00;;;;;;;25.77;96.87;99192.98;270215;1262;22544;-88
2023/08/23 12:54:22;;;;;;;25.20;21.00;;;;;;;25.75;96.27;99183.39;270004;1270;23765;-86
2023/08/23 13:00:33;;;;;;;23.60;20.80;;;;;;;25.75;95.66;99176.05;270556;1269;22578;-86
2023/08/23 13:06:35;;;;;;;24.70;19.20;;;;;;;25.78;95.56;99171.77;271052;1269;22448;-85
2023/08/23 13:12:52;;;;;;;22.40;18.40;;;;;;;25.78;95.17;99168.48;273103;1272;22275;-87
2023/08/23 13:18:59;;;;;;;23.60;19.80;;;;;;;25.77;94.55;99163.27;273802;1276;22166;-87
2023/08/23 13:25:08;;;;;;;21.70;19.30;;;;;;;25.75;94.36;99158.63;273690;1276;22209;-85
2023/08/23 13:31:10;;;;;;;21.40;18.30;;;;;;;25.74;94.04;99150.13;273430;1272;22563;-87
2023/08/23 14:01:31;;;;;;;22.10;18.00;;;;;;;25.86;93.53;99147.12;273728;1269;23202;-86
2023/08/23 14:07:34;;;;;;;23.20;18.10;;;;;;;25.95;92.29;99140.28;273805;1273;23182;-86
2023/08/23 14:14:01;;;;;;;20.10;17.90;;;;;;;26.04;92.00;99143.38;272149;1269;22754;-86
2023/08/23 14:20:28;;;;;;;20.40;18.20;;;;;;;26.11;91.21;99140.53;272705;1269;23772;-87
2023/08/23 14:34:49;;;;;;;18.90;16.70;;;;;;;26.18;90.90;99139.46;273737;1271;22276;-86
2023/08/23 14:49:34;;;;;;;17.70;16.00;;;;;;;26.29;90.02;99133.73;273672;1278;23177;-86
2023/08/23 14:55:36;;;;;;;18.50;16.30;;;;;;;26.27;89.69;99133.52;272544;1269;22633;-87
2023/08/23 15:09:32;;;;;;;18.70;16.10;;;;;;;26.21;88.70;99140.39;273338;1270;22284;-87
2023/08/23 15:16:02;;;;;;;18.50;16.50;;;;;;;26.10;88.19;99145.09;272708;1272;22557;-86
2023/08/23 15:22:22;;;;;;;19.00;16.20;;;;;;;26.06;88.17;99149.06;270411;1272;22593;-87
2023/08/23 15:28:24;;;;;;;24.50;17.70;;;;;;;26.06;88.25;99149.48;271427;1266;23925;-87
2023/08/23 15:34:58;;;;;;;18.40;16.60;;;;;;;26.07;88.28;99148.74;272975;1270;23269;-87
2023/08/23 15:41:03;;;;;;;18.30;16.20;;;;;;;26.01;87.36;99153.46;271825;1270;22557;-87
2023/08/23 15:47:08;;;;;;;19.90;15.00;;;;;;;25.89;86.79;99158.81;271916;1272;22200;-88
2023/08/23 15:53:11;;;;;;;13.60;12.20;;;;;;;25.77;86.78;99161.92;271726;1271;22564;-87
2023/08/23 15:59:13;;;;;;;12.50;11.20;;;;;;;25.66;86.45;99160.13;270485;1270;22548;-87
2023/08/23 16:05:15;;;;;;;9.50;8.50;;;;;;;25.49;86.44;99161.58;269936;1270;22543;-86
2023/08/23 16:12:07;;;;;;;8.80;7.60;;;;;;;25.36;85.89;99170.48;270492;1254;22547;-86
2023/08/23 16:18:37;;;;;;;8.20;7.40;;;;;;;25.33;85.74;99174.55;263296;1269;10002374;-86
2023/08/23 16:32:39;;;;;;;6.70;6.00;;;;;;;25.13;85.22;99172.78;270913;1268;23412;-86
2023/08/23 16:38:52;;;;;;;6.70;5.40;;;;;;;25.05;85.32;99176.59;273066;1277;22216;-86
2023/08/23 16:44:57;;;;;;;6.80;5.40;;;;;;;24.97;85.34;99177.43;273260;1274;22269;-86
2023/08/23 16:51:03;;;;;;;6.40;4.80;;;;;;;24.98;85.02;99181.11;273498;1278;22193;-87
2023/08/23 16:57:57;;;;;;;7.00;5.20;;;;;;;24.94;85.27;99182.29;273302;1278;22189;-87
2023/08/23 17:03:59;;;;;;;7.10;4.50;;;;;;;24.88;85.10;99177.62;273321;1272;22199;-86
2023/08/23 17:10:06;;;;;;;5.90;5.00;;;;;;;24.77;84.98;99177.30;272603;1273;22974;-87
2023/08/23 17:16:23;;;;;;;8.40;6.40;;;;;;;24.61;85.52;99179.07;272236;1271;23466;-87
2023/08/23 17:22:52;;;;;;;;;;;;;;;24.44;86.30;99180.43;272401;1270;22519;-86
2023/08/23 17:28:55;;;;;;;17.70;15.10;;;;;;;24.37;87.49;99179.98;272458;1270;26521;-87
2023/08/23 17:35:04;;;;;;;;;;;;;;;24.31;88.15;99185.55;273049;1273;23252;-87
2023/08/23 17:41:58;;;;;;;19.80;17.70;;;;;;;24.20;89.15;99188.64;272157;1270;22543;-85
2023/08/23 17:48:06;;;;;;;25.60;18.20;;;;;;;24.01;89.55;99188.19;270657;1270;22686;-85
2023/08/23 17:54:37;;;;;;;19.70;17.40;;;;;;;23.87;90.02;99191.85;272946;1271;22687;-85
2023/08/23 18:01:51;;;;;;;;;;;;;;;;;;;;;
2023/08/23 18:09:24;;;;;;;;;;;;;;;;;;;;;
2023/08/23 18:24:15;;;;;;;;;;;;;;;;;;;;;
2023/08/23 18:30:56;;;;;;;19.80;17.60;;;;;;;23.25;94.55;99227.34;270448;1275;22058;-87
2023/08/23 18:37:30;;;;;;;23.70;18.10;;;;;;;23.15;95.36;99234.06;271127;1271;22220;-87
2023/08/23 18:51:06;;;;;;;23.70;19.80;;;;;;;22.84;96.08;99241.55;271821;1282;22523;-86
2023/08/23 18:57:09;;;;;;;25.00;20.30;;;;;;;22.65;96.54;99251.45;273197;1278;22200;-86
2023/08/23 19:03:40;;;;;;;27.40;21.90;;;;;;;22.42;96.95;99256.89;272867;1271;22186;-86
2023/08/23 19:09:42;;;;;;;28.30;22.00;;;;;;;22.23;98.01;99254.48;271945;1271;23091;-86
2023/08/23 19:15:45;;;;;;;29.40;22.90;;;;;;;22.08;98.84;99256.72;271716;1272;23703;-86
2023/08/23 19:29:25;;;;;;;23.30;20.00;;;;;;;21.62;99.92;99262.14;271603;1272;23295;-86
2023/08/23 19:36:09;;;;;;;26.30;23.50;;;;;;;21.47;100.00;99268.05;272245;1272;22297;-86
2023/08/23 19:42:42;;;;;;;30.90;23.40;;;;;;;21.32;100.00;99268.98;273159;1272;22831;-86
2023/08/23 19:49:13;;;;;;;34.30;24.90;;;;;;;21.13;100.00;99263.52;273414;1273;22198;-87
2023/08/23 19:55:41;;;;;;;29.50;22.40;;;;;;;20.94;100.00;99270.61;273429;1272;22362;-87
2023/08/23 20:01:43;;;;;;;30.70;24.10;;;;;;;20.82;100.00;99271.16;271348;1272;22525;-87
2023/08/23 20:08:10;;;;;;;29.40;23.40;;;;;;;20.65;100.00;99270.08;272147;1270;22375;-86
2023/08/23 20:14:12;;;;;;;29.20;23.70;;;;;;;20.54;100.00;99268.84;272043;1269;22584;-86
2023/08/23 20:20:40;;;;;;;30.40;24.30;;;;;;;20.43;100.00;99267.67;270548;1271;23070;-86
2023/08/23 20:26:42;;;;;;;;;;;;;;;20.32;100.00;99274.70;270400;1272;22514;-90
2023/08/23 20:33:10;;;;;;;30.30;19.20;;;;;;;20.26;100.00;99280.82;270499;1270;22414;-86
2023/08/23 20:39:13;;;;;;;26.00;20.90;;;;;;;20.15;100.00;99283.84;271029;1269;22520;-86
2023/08/23 20:45:20;;;;;;;31.80;25.80;;;;;;;20.01;100.00;99283.23;270915;1272;22482;-86
2023/08/23 20:51:29;;;;;;;33.00;25.40;;;;;;;19.94;100.00;99285.41;269956;1269;22478;-87
2023/08/23 20:57:31;;;;;;;32.20;23.20;;;;;;;19.81;100.00;99288.54;270761;1269;22554;-87
2023/08/23 21:03:33;;;;;;;27.60;23.50;;;;;;;19.70;100.00;99294.01;270985;1270;24297;-87
2023/08/23 21:09:35;;;;;;;33.10;27.30;;;;;;;19.65;100.00;99293.71;271943;1267;22535;-86
2023/08/23 21:15:47;;;;;;;29.30;26.00;;;;;;;19.63;100.00;99292.02;271587;1271;22221;-86
2023/08/23 21:22:41;;;;;;;35.60;27.30;;;;;;;19.63;100.00;99288.67;273221;1272;22228;-87
2023/08/23 21:28:44;;;;;;;32.40;23.80;;;;;;;19.61;100.00;99285.70;272050;1261;22546;-88
2023/08/23 21:34:46;;;;;;;33.20;25.50;;;;;;;19.55;100.00;99288.07;273298;1270;22526;-87
2023/08/23 21:41:42;;;;;;;33.30;26.20;;;;;;;19.47;100.00;99288.38;273849;1271;22168;-87
2023/08/23 21:47:46;;;;;;;;;;;;;;;19.34;100.00;99288.07;273273;1270;23357;-87
2023/08/23 21:54:42;;;;;;;28.40;23.70;;;;;;;19.24;100.00;99287.94;265017;1270;10141253;-86
2023/08/23 22:00:56;;;;;;;27.60;22.20;;;;;;;19.16;100.00;99289.52;270310;1269;22576;-87
2023/08/23 22:07:04;;;;;;;25.50;20.80;;;;;;;19.13;100.00;99296.05;271237;1271;22581;-86
2023/08/23 22:13:32;;;;;;;26.20;21.50;;;;;;;19.17;100.00;99300.90;270493;1255;24187;-86
2023/08/23 22:19:35;;;;;;;30.30;25.00;;;;;;;19.12;100.00;99296.39;271032;1272;25342;-86
2023/08/23 22:26:28;;;;;;;30.60;24.40;;;;;;;19.03;100.00;99296.88;271077;1271;22374;-86
2023/08/23 22:32:32;;;;;;;28.40;23.50;;;;;;;18.95;100.00;99298.53;270708;1269;23251;-87
2023/08/23 22:38:35;;;;;;;27.50;22.70;;;;;;;18.88;100.00;99292.79;269752;1275;23218;-87
2023/08/23 22:44:39;;;;;;;28.00;20.90;;;;;;;18.83;100.00;99294.70;269909;1272;25422;-86
2023/08/23 22:50:44;;;;;;;24.00;19.60;;;;;;;18.77;100.00;99294.41;269961;1271;22542;-87
2023/08/23 23:04:22;;;;;;;23.00;17.10;;;;;;;18.61;100.00;99293.71;270578;1272;22376;-87
2023/08/23 23:10:25;;;;;;;25.40;17.80;;;;;;;18.57;100.00;99298.15;269748;1269;22545;-87
2023/08/23 23:16:27;;;;;;;19.90;15.80;;;;;;;18.47;100.00;99294.59;270391;1269;22534;-87
2023/08/23 23:22:32;;;;;;;20.10;17.60;;;;;;;18.38;100.00;99284.66;269907;1270;22521;-87
2023/08/23 23:28:44;;;;;;;21.80;18.00;;;;;;;18.26;100.00;99285.53;270867;1269;22640;-87
2023/08/23 23:34:50;;;;;;;22.90;17.80;;;;;;;18.14;100.00;99285.01;270833;1269;23773;-87
2023/08/23 23:42:35;;;;;;;22.10;17.70;;;;;;;18.03;100.00;99281.92;270536;1269;22493;-86
2023/08/23 23:48:37;;;;;;;20.10;16.70;;;;;;;17.92;100.00;99280.42;270428;1270;22559;-86
2023/08/23 23:54:40;;;;;;;18.80;16.60;;;;;;;17.88;100.00;99279.84;270530;1270;24526;-86
